Time;durP1;ratioP1;P1;durP2;ratioP2;P2;SDS_P1;SDS_P2;PMS_P1;PMS_P2;Temp;Humidity;BMP_temperature;BMP_pressure;BME280_temperature;BME280_humidity;BME280_pressure;Samples;Min_cycle;Max_cycle;Signal;HPM_P1;HPM_P2
2023/03/03 00:03:16;;;;;;;;;;;5.00;51.80;;;2.96;54.41;101960.13;12255491;19;19915;-86
2023/03/03 00:07:21;;;;;;;;;;;4.70;51.80;;;2.96;54.14;101967.00;12252304;19;20371;-85
2023/03/03 00:11:23;;;;;;;;;;;4.70;51.80;;;2.91;54.31;101967.00;12255661;19;20284;-85
2023/03/03 00:15:25;;;;;;;;;;;4.70;51.70;;;2.92;54.26;101968.75;12252723;19;20241;-85
2023/03/03 00:19:36;;;;;;;;;;;4.70;51.60;;;2.96;54.29;101985.91;12253447;19;19919;-85
2023/03/03 00:23:41;;;;;;;;;;;4.70;51.60;;;2.85;54.22;101967.88;12254629;19;19953;-86
2023/03/03 00:27:43;;;;;;;;;;;4.70;51.80;;;2.86;54.13;101955.84;12251114;19;19919;-85
2023/03/03 00:31:44;;;;;;;;;;;4.70;51.80;;;2.88;54.36;101972.19;12254193;19;20325;-85
2023/03/03 00:35:46;;;;;;;;;;;4.70;51.80;;;2.95;54.23;101973.88;12250450;19;19915;-86
2023/03/03 00:39:48;;;;;;;;;;;4.70;51.60;;;2.86;54.21;101948.09;12253950;19;19919;-85
2023/03/03 00:43:50;;;;;;;;;;;4.90;51.90;;;2.82;54.32;101925.78;12253169;19;20006;-86
2023/03/03 00:47:52;;;;;;;;;;;4.70;51.80;;;2.81;54.28;101929.22;12250986;19;19911;-86
2023/03/03 00:51:54;;;;;;;;;;;4.60;51.70;;;2.65;54.41;101913.81;12252069;19;19911;-85
2023/03/03 00:55:56;;;;;;;;;;;4.60;51.70;;;2.84;54.40;101936.97;12250467;19;19945;-86
2023/03/03 00:59:58;;;;;;;;;;;4.60;51.70;;;2.47;54.37;101861.44;12252888;19;19923;-86
2023/03/03 01:04:01;;;;;;;;;;;4.60;51.70;;;3.00;54.62;101950.66;12250259;19;19928;-85
2023/03/03 01:08:03;;;;;;;;;;;4.60;51.70;;;2.86;54.30;101925.78;12249387;19;19915;-86
2023/03/03 01:12:05;;;;;;;;;;;4.70;51.50;;;2.97;54.43;101946.38;12248861;19;19923;-85
2023/03/03 01:16:07;;;;;;;;;;;4.70;51.60;;;2.77;54.33;101907.72;12245953;19;19929;-85
2023/03/03 01:20:13;;;;;;;;;;;4.60;51.60;;;2.98;54.31;101936.91;12247192;19;20324;-86
2023/03/03 01:24:14;;;;;;;;;;;4.70;51.60;;;2.86;54.60;101906.84;12249043;19;19983;-85
2023/03/03 01:28:16;;;;;;;;;;;4.70;51.70;;;2.96;54.45;101912.81;12243974;19;19926;-85
2023/03/03 01:32:18;;;;;;;;;;;4.70;51.60;;;3.05;54.55;101931.72;12251089;19;19923;-86
2023/03/03 01:36:25;;;;;;;;;;;4.70;51.70;;;3.02;54.52;101923.97;12248902;19;19927;-86
2023/03/03 01:40:28;;;;;;;;;;;4.70;51.60;;;3.07;54.53;101921.38;12248333;19;19911;-86
2023/03/03 01:44:31;;;;;;;;;;;4.70;51.60;;;3.01;54.44;101905.91;12248947;19;19923;-86
2023/03/03 01:48:37;;;;;;;;;;;4.80;51.60;;;2.91;54.52;101878.44;12245439;19;19915;-86
2023/03/03 01:52:43;;;;;;;;;;;4.80;51.60;;;2.97;54.51;101889.59;12247936;19;19923;-85
2023/03/03 01:56:45;;;;;;;;;;;5.10;51.70;;;2.97;54.46;101893.88;12243598;19;20345;-86
2023/03/03 02:00:52;;;;;;;;;;;4.80;51.50;;;3.04;54.49;101911.06;12251036;19;20320;-85
2023/03/03 02:04:53;;;;;;;;;;;4.80;51.60;;;3.04;54.56;101896.44;12259394;19;19914;-86
2023/03/03 02:09:21;;;;;;;;;;;4.80;51.60;;;3.10;54.65;101898.97;12254396;19;19919;-86
2023/03/03 02:13:23;;;;;;;;;;;4.80;51.90;;;3.02;54.51;101886.97;12258035;19;19918;-85
2023/03/03 02:17:28;;;;;;;;;;;4.80;51.50;;;3.04;54.63;101896.44;12254385;19;20347;-86
2023/03/03 02:21:29;;;;;;;;;;;4.80;51.50;;;3.10;54.72;101919.63;12253948;19;19922;-85
2023/03/03 02:25:55;;;;;;;;;;;4.90;51.70;;;3.05;54.42;101912.75;12256443;19;19943;-86
2023/03/03 02:30:06;;;;;;;;;;;4.90;51.60;;;3.10;54.44;101905.88;12257834;19;20393;-86
2023/03/03 02:34:10;;;;;;;;;;;4.80;51.50;;;3.15;54.66;101929.06;12256622;19;19922;-86
2023/03/03 02:38:17;;;;;;;;;;;4.80;51.50;;;2.92;54.64;101883.63;12252374;19;19919;-85
2023/03/03 02:42:28;;;;;;;;;;;4.80;51.60;;;3.10;54.46;101926.50;12255560;19;19925;-86
2023/03/03 02:46:35;;;;;;;;;;;4.80;51.50;;;3.08;54.57;101905.88;12253782;19;19934;-86
2023/03/03 02:50:36;;;;;;;;;;;4.90;51.60;;;2.85;54.54;101869.03;12255667;19;19923;-86
2023/03/03 02:54:38;;;;;;;;;;;4.90;51.60;;;3.13;54.48;101905.00;12256018;19;20349;-86
2023/03/03 02:58:40;;;;;;;;;;;4.90;51.60;;;3.15;54.53;101911.84;12250771;19;19914;-86
2023/03/03 03:02:42;;;;;;;;;;;5.10;51.70;;;3.15;54.56;101901.53;12256532;19;19923;-86
2023/03/03 03:06:45;;;;;;;;;;;4.80;51.50;;;3.02;54.65;101877.50;12254663;19;19923;-86
2023/03/03 03:10:49;;;;;;;;;;;4.90;51.50;;;3.13;54.60;101899.84;12254683;19;19921;-86
2023/03/03 03:14:50;;;;;;;;;;;4.90;51.50;;;3.12;54.63;101917.03;12253463;19;19926;-86
2023/03/03 03:18:52;;;;;;;;;;;4.90;51.60;;;3.23;54.56;101917.00;12250282;19;20529;-85
2023/03/03 03:22:54;;;;;;;;;;;4.90;51.50;;;3.08;54.42;101908.47;12201974;19;20333;-86
2023/03/03 03:26:56;;;;;;;;;;;4.90;51.40;;;2.73;54.64;101864.78;12244021;19;19926;-86
2023/03/03 03:30:59;;;;;;;;;;;4.90;51.60;;;3.07;54.71;101929.97;12249881;19;20336;-86
2023/03/03 03:35:01;;;;;;;;;;;4.90;51.80;;;3.03;54.43;101914.53;12249514;19;20237;-86
2023/03/03 03:39:05;;;;;;;;;;;4.90;51.60;;;2.63;54.50;101851.06;12254692;19;20246;-86
2023/03/03 03:43:10;;;;;;;;;;;4.90;51.60;;;3.10;54.76;101918.75;12252422;19;20237;-86
2023/03/03 03:47:11;;;;;;;;;;;4.90;51.60;;;3.26;54.66;101951.38;12254202;19;19982;-86
2023/03/03 03:51:14;;;;;;;;;;;4.90;51.70;;;3.21;54.71;101932.47;12254876;19;19930;-86
2023/03/03 03:55:16;;;;;;;;;;;5.10;51.90;;;3.20;54.79;101919.59;12251955;19;19926;-86
2023/03/03 03:59:18;;;;;;;;;;;4.90;51.70;;;3.14;54.70;101901.56;12253520;19;19923;-86
2023/03/03 04:03:20;;;;;;;;;;;5.20;51.80;;;3.06;54.71;101886.97;12252352;19;19919;-86
2023/03/03 04:07:23;;;;;;;;;;;5.20;51.80;;;3.23;54.61;101902.34;12252260;19;19918;-86
2023/03/03 04:11:25;;;;;;;;;;;5.10;51.70;;;3.27;54.63;101903.22;12253181;19;19918;-86
2023/03/03 04:15:26;;;;;;;;;;;5.00;51.70;;;3.32;54.67;101902.31;12251115;19;20344;-86
2023/03/03 04:19:29;;;;;;;;;;;5.00;51.70;;;3.20;54.76;101867.97;12254786;19;19911;-86
2023/03/03 04:23:31;;;;;;;;;;;5.00;51.70;;;3.30;54.55;101883.38;12250495;19;19923;-86
2023/03/03 04:27:35;;;;;;;;;;;5.00;51.70;;;3.22;54.87;101874.00;12252906;19;19975;-86
2023/03/03 04:31:37;;;;;;;;;;;5.30;51.80;;;3.28;54.71;101884.25;12252753;19;19926;-86
2023/03/03 04:35:41;;;;;;;;;;;5.10;51.70;;;3.21;54.63;101883.44;12252252;19;19915;-86
2023/03/03 04:39:43;;;;;;;;;;;5.10;51.70;;;3.26;54.83;101876.50;12253453;19;19922;-86
2023/03/03 04:43:45;;;;;;;;;;;5.10;51.60;;;3.19;54.74;101856.78;12251094;19;19918;-86
2023/03/03 04:47:48;;;;;;;;;;;5.10;51.60;;;3.32;54.67;101875.63;12251231;19;20296;-86
2023/03/03 04:51:50;;;;;;;;;;;5.30;51.70;;;3.34;54.74;101899.72;12253621;19;19978;-86
2023/03/03 04:55:52;;;;;;;;;;;5.10;51.70;;;3.42;54.70;101897.09;12249516;19;19918;-86
2023/03/03 04:59:55;;;;;;;;;;;5.10;51.60;;;3.41;54.84;101885.91;12251533;19;19929;-86
2023/03/03 05:03:57;;;;;;;;;;;5.20;51.70;;;3.08;54.63;101836.22;12250157;19;19930;-86
2023/03/03 05:07:58;;;;;;;;;;;5.10;51.60;;;3.31;54.66;101868.75;12250999;19;19982;-86
2023/03/03 05:12:00;;;;;;;;;;;5.10;51.60;;;3.21;54.82;101844.72;12249743;19;19935;-86
2023/03/03 05:16:02;;;;;;;;;;;5.20;51.60;;;3.37;54.79;101876.44;12249359;19;19922;-86
2023/03/03 05:20:07;;;;;;;;;;;5.10;51.60;;;3.40;54.73;101888.47;12251074;19;19925;-86
2023/03/03 05:24:10;;;;;;;;;;;5.20;51.60;;;2.87;54.80;101795.06;12248172;19;19928;-86
2023/03/03 05:28:12;;;;;;;;;;;5.10;51.60;;;3.31;54.83;101874.75;12248451;19;19988;-86
2023/03/03 05:32:14;;;;;;;;;;;5.10;51.60;;;3.34;54.56;101889.38;12245717;19;20255;-86
2023/03/03 05:36:16;;;;;;;;;;;5.20;51.60;;;3.32;54.67;101881.66;12253469;19;19925;-86
2023/03/03 05:40:17;;;;;;;;;;;5.10;51.60;;;3.32;54.98;101883.38;12262033;19;19915;-86
2023/03/03 05:44:19;;;;;;;;;;;5.10;51.70;;;3.37;54.95;101904.84;12256779;19;19932;-86
2023/03/03 05:48:21;;;;;;;;;;;5.10;51.70;;;3.23;54.84;101893.75;12263815;19;19926;-86
2023/03/03 05:52:25;;;;;;;;;;;5.20;51.70;;;2.93;54.83;101867.25;12258513;19;20344;-86
2023/03/03 05:56:27;;;;;;;;;;;5.00;51.60;;;3.04;54.97;101883.53;12256917;19;20266;-86
2023/03/03 06:00:28;;;;;;;;;;;5.00;51.60;;;2.77;54.78;101858.72;12260128;19;19929;-86
2023/03/03 06:04:30;;;;;;;;;;;5.00;51.60;;;3.04;54.87;101880.94;12257117;19;19921;-86
2023/03/03 06:08:32;;;;;;;;;;;4.90;51.60;;;3.08;54.80;101911.06;12263263;19;19915;-86
2023/03/03 06:12:34;;;;;;;;;;;4.90;51.60;;;2.77;54.81;101853.56;12257136;19;19923;-86
2023/03/03 06:16:35;;;;;;;;;;;4.90;51.60;;;3.17;54.96;101929.94;12260966;19;19979;-86
2023/03/03 06:20:37;;;;;;;;;;;4.90;51.70;;;3.10;54.81;101922.19;12265179;19;19938;-86
2023/03/03 06:24:39;;;;;;;;;;;4.90;51.70;;;3.16;54.88;101934.25;12263472;19;19926;-86
2023/03/03 06:28:40;;;;;;;;;;;4.80;51.70;;;3.11;54.98;101925.66;12264651;19;19919;-87
2023/03/03 06:32:42;;;;;;;;;;;5.10;51.80;;;3.12;54.80;101929.09;12265588;19;19940;-87
2023/03/03 06:36:44;;;;;;;;;;;4.80;51.70;;;2.99;54.77;101916.25;12260111;19;19923;-86
2023/03/03 06:40:46;;;;;;;;;;;4.80;51.60;;;3.09;55.03;101941.13;12264192;19;19911;-86
2023/03/03 06:44:47;;;;;;;;;;;4.80;51.70;;;3.05;54.90;101941.16;12258888;19;19926;-86
2023/03/03 06:48:49;;;;;;;;;;;5.10;51.80;;;2.94;54.80;101941.19;12261071;19;19923;-86
2023/03/03 06:53:00;;;;;;;;;;;4.80;51.70;;;3.02;55.08;101957.50;12256625;19;19915;-86
2023/03/03 06:57:25;;;;;;;;;;;4.70;51.70;;;3.02;54.78;101969.56;12254161;19;20333;-87
2023/03/03 07:01:29;;;;;;;;;;;4.70;51.60;;;2.95;54.88;101960.13;12254520;19;19910;-87
2023/03/03 07:05:31;;;;;;;;;;;4.70;51.60;;;2.76;54.93;101936.97;12255462;19;19910;-85
2023/03/03 07:09:33;;;;;;;;;;;4.70;51.70;;;2.99;54.83;101967.00;12258325;19;19923;-85
2023/03/03 07:13:37;;;;;;;;;;;4.70;51.60;;;2.75;54.93;101932.66;12254242;19;19918;-85
2023/03/03 07:17:44;;;;;;;;;;;4.70;51.70;;;2.88;55.01;101957.56;12252468;19;19948;-86
2023/03/03 07:21:46;;;;;;;;;;;4.70;51.70;;;2.93;55.11;101967.88;12252263;19;20412;-86
2023/03/03 07:25:48;;;;;;;;;;;4.80;51.80;;;2.98;55.02;101996.25;12252997;19;19919;-86
2023/03/03 07:29:52;;;;;;;;;;;4.70;51.70;;;2.93;55.10;101979.91;12247527;19;19923;-86
2023/03/03 07:33:55;;;;;;;;;;;4.60;51.70;;;2.96;54.95;101990.22;12251597;19;19923;-86
2023/03/03 07:37:57;;;;;;;;;;;4.60;51.70;;;2.91;55.07;101976.47;12254488;19;19923;-86
2023/03/03 07:42:45;;;;;;;;;;;4.80;51.80;;;2.95;54.99;101973.88;12251286;19;19935;-89
2023/03/03 07:46:55;;;;;;;;;;;4.70;51.90;;;2.85;55.02;101967.88;12242392;19;19919;-86
2023/03/03 07:51:04;;;;;;;;;;;4.70;51.80;;;2.90;54.92;101991.09;12248588;19;19929;-86
2023/03/03 07:55:27;;;;;;;;;;;4.80;51.80;;;3.03;54.99;102005.69;12246523;19;20009;-86
2023/03/03 07:59:29;;;;;;;;;;;4.70;51.80;;;3.06;55.02;102017.72;12247238;19;19911;-86
2023/03/03 08:03:34;;;;;;;;;;;4.90;51.80;;;3.02;54.96;102003.94;12242251;19;19915;-85
2023/03/03 08:07:41;;;;;;;;;;;4.70;51.80;;;3.00;54.93;102000.53;12247089;19;19929;-85
2023/03/03 08:11:57;;;;;;;;;;;4.80;51.90;;;3.09;55.02;102013.41;12243111;19;19919;-86
2023/03/03 08:16:04;;;;;;;;;;;4.80;51.90;;;3.07;54.96;102009.94;12247516;19;19915;-86
2023/03/03 08:20:48;;;;;;;;;;;4.70;51.80;;;3.09;55.03;102007.38;12246153;19;20344;-86
2023/03/03 08:24:50;;;;;;;;;;;4.80;51.80;;;3.07;55.11;101999.63;12244500;19;20353;-86
2023/03/03 08:28:52;;;;;;;;;;;4.80;51.90;;;2.65;55.15;101931.84;12249042;19;19917;-86
2023/03/03 08:32:54;;;;;;;;;;;4.80;51.90;;;3.07;55.22;101998.78;12245008;19;19919;-86
2023/03/03 08:36:57;;;;;;;;;;;4.80;51.80;;;3.01;54.98;101994.50;12244847;19;19922;-85
2023/03/03 08:41:02;;;;;;;;;;;4.80;51.90;;;3.08;55.03;102014.28;12247090;19;19932;-85
2023/03/03 08:45:04;;;;;;;;;;;4.80;52.00;;;3.00;55.19;102007.44;12245304;19;19922;-84
2023/03/03 08:49:05;;;;;;;;;;;4.80;51.90;;;3.05;55.31;102008.25;12248326;19;19986;-84
2023/03/03 08:53:06;;;;;;;;;;;4.80;51.90;;;3.03;55.28;102002.25;12244264;19;19918;-86
2023/03/03 08:57:08;;;;;;;;;;;4.80;52.00;;;3.03;55.11;102005.69;12248507;19;19960;-86
2023/03/03 09:01:09;;;;;;;;;;;4.80;51.90;;;3.12;55.20;102027.16;12249622;19;19932;-86
2023/03/03 09:05:14;;;;;;;;;;;4.80;51.90;;;2.56;55.20;101937.03;12244111;19;20275;-87
2023/03/03 09:09:16;;;;;;;;;;;4.80;51.90;;;3.05;55.36;102001.38;12247293;19;20048;-86
2023/03/03 09:13:19;;;;;;;;;;;4.80;52.00;;;3.16;55.03;102009.09;12258416;19;20317;-86
2023/03/03 09:17:32;;;;;;;;;;;4.80;51.90;;;3.09;55.02;101999.63;12257347;19;20362;-86
2023/03/03 09:21:34;;;;;;;;;;;4.90;52.00;;;3.12;54.96;101991.03;12259397;19;19907;-86
2023/03/03 09:25:36;;;;;;;;;;;4.80;52.10;;;3.18;55.09;102012.50;12260443;19;19943;-86
2023/03/03 09:29:38;;;;;;;;;;;4.90;52.00;;;3.16;55.34;102010.78;12257473;19;19963;-86
2023/03/03 09:33:42;;;;;;;;;;;4.80;52.00;;;3.14;55.16;102003.06;12255963;19;19935;-86
2023/03/03 09:37:45;;;;;;;;;;;4.90;52.10;;;3.04;55.19;101986.75;12255165;19;19911;-87
2023/03/03 09:42:01;;;;;;;;;;;4.90;52.00;;;3.24;55.21;102015.06;12256898;19;20440;-86
2023/03/03 09:46:44;;;;;;;;;;;4.90;52.10;;;3.13;55.27;101987.56;12256824;19;19933;-86
2023/03/03 09:51:09;;;;;;;;;;;4.90;52.20;;;3.30;55.08;102016.78;12257636;19;19985;-86
2023/03/03 09:55:26;;;;;;;;;;;5.00;52.20;;;3.30;55.41;102001.28;12253049;19;19911;-86
2023/03/03 09:59:58;;;;;;;;;;;5.00;52.20;;;3.37;55.45;102007.25;12257500;19;20399;-86
2023/03/03 10:04:11;;;;;;;;;;;5.00;52.20;;;3.40;55.22;102009.81;12255260;19;19929;-86
2023/03/03 10:08:39;;;;;;;;;;;5.10;52.20;;;3.44;55.24;102012.41;12258443;19;19939;-86
2023/03/03 10:13:12;;;;;;;;;;;5.10;52.20;;;3.49;55.19;102013.22;12255445;19;19915;-86
2023/03/03 10:17:25;;;;;;;;;;;5.20;52.30;;;3.37;55.29;101986.59;12252462;19;19923;-86
2023/03/03 10:21:35;;;;;;;;;;;5.20;52.50;;;3.53;55.38;102014.06;12254427;19;19971;-85
2023/03/03 10:25:49;;;;;;;;;;;5.20;52.30;;;3.61;55.25;102012.31;12258170;19;20436;-86
2023/03/03 10:30:11;;;;;;;;;;;5.30;52.40;;;3.59;55.21;101997.69;12254796;19;19936;-85
2023/03/03 10:34:53;;;;;;;;;;;5.30;52.30;;;3.65;55.30;102008.84;12251331;19;19922;-85
2023/03/03 10:39:21;;;;;;;;;;;5.40;52.50;;;3.54;55.37;101987.41;12254277;19;20333;-86
2023/03/03 10:43:38;;;;;;;;;;;5.40;52.60;;;3.73;55.49;102006.22;12251100;19;19955;-85
2023/03/03 10:47:54;;;;;;;;;;;5.40;52.70;;;3.77;55.46;102007.91;12255236;19;19987;-86
2023/03/03 10:52:07;;;;;;;;;;;5.50;52.60;;;3.83;55.42;102012.16;12254774;19;19982;-85
2023/03/03 10:56:30;;;;;;;;;;;5.50;52.40;;;3.90;55.37;102012.13;12254015;19;20249;-85
2023/03/03 11:00:43;;;;;;;;;;;5.60;52.50;;;3.87;55.72;101998.38;12252869;19;19926;-86
2023/03/03 11:05:06;;;;;;;;;;;5.60;52.50;;;4.03;55.41;102009.47;12255979;19;19934;-86
2023/03/03 11:09:22;;;;;;;;;;;5.70;52.50;;;4.08;55.58;102013.72;12255072;19;19911;-86
2023/03/03 11:13:40;;;;;;;;;;;6.00;52.60;;;4.05;55.58;101998.25;12251584;19;19919;-85
2023/03/03 11:18:10;;;;;;;;;;;5.80;52.50;;;4.18;55.67;102009.34;12250080;19;19918;-88
2023/03/03 11:22:27;;;;;;;;;;;5.90;52.40;;;4.05;55.53;101982.75;12253958;19;20339;-86
2023/03/03 11:26:55;;;;;;;;;;;5.90;52.40;;;4.17;55.51;102003.31;12252873;19;19931;-86
2023/03/03 11:31:27;;;;;;;;;;;6.00;52.40;;;4.16;55.68;101980.06;12250908;19;20645;-85
2023/03/03 11:35:44;;;;;;;;;;;6.00;52.50;;;4.36;55.54;102003.16;12250057;19;19919;-86
2023/03/03 11:39:48;;;;;;;;;;;6.10;52.50;;;4.33;55.70;101985.09;12250456;19;19919;-86
2023/03/03 11:43:58;;;;;;;;;;;6.10;52.40;;;4.47;55.46;101996.16;12249046;19;20372;-85
2023/03/03 11:48:11;;;;;;;;;;;6.20;52.50;;;4.41;55.44;101975.53;12251408;19;20358;-85
2023/03/03 11:52:31;;;;;;;;;;;6.40;52.60;;;4.61;55.76;101996.03;12250060;19;19943;-85
2023/03/03 11:56:39;;;;;;;;;;;6.50;52.60;;;4.56;55.66;101972.78;12250095;19;19910;-85
2023/03/03 12:00:57;;;;;;;;;;;6.30;52.50;;;4.65;55.65;101962.34;12250152;19;20321;-85
2023/03/03 12:05:11;;;;;;;;;;;6.40;52.60;;;4.78;55.55;101981.19;12248415;19;19918;-85
2023/03/03 12:09:38;;;;;;;;;;;6.50;52.90;;;4.85;55.50;101966.44;12251414;19;19919;-84
2023/03/03 12:13:50;;;;;;;;;;;6.50;52.50;;;4.91;55.55;101965.50;12251268;19;19948;-89
2023/03/03 12:18:32;;;;;;;;;;;6.60;52.50;;;4.97;55.58;101950.78;12246758;19;19911;-86
2023/03/03 12:22:51;;;;;;;;;;;6.70;52.40;;;4.97;55.73;101934.38;12246286;19;19911;-86
2023/03/03 12:27:16;;;;;;;;;;;6.70;52.50;;;5.14;55.72;101944.53;12248785;19;19924;-85
2023/03/03 12:31:28;;;;;;;;;;;6.80;52.50;;;5.20;55.60;101942.72;12248723;19;19931;-85
2023/03/03 12:35:39;;;;;;;;;;;6.90;52.60;;;5.09;55.68;101916.09;12248324;19;19978;-86
2023/03/03 12:40:07;;;;;;;;;;;7.00;52.50;;;5.29;55.58;101929.66;12247863;19;19927;-86
2023/03/03 12:44:40;;;;;;;;;;;7.00;52.50;;;5.35;55.71;101923.53;12246157;19;19918;-86
2023/03/03 12:48:44;;;;;;;;;;;7.10;52.50;;;5.32;55.79;101895.94;12249437;19;19918;-85
2023/03/03 12:53:07;;;;;;;;;;;7.10;52.50;;;5.49;55.65;101918.16;12246537;19;19915;-86
2023/03/03 12:57:43;;;;;;;;;;;7.20;52.60;;;5.46;55.63;101892.28;12245014;19;20196;-86
2023/03/03 13:02:05;;;;;;;;;;;7.20;52.50;;;5.52;55.67;101897.38;12248305;19;20392;-86
2023/03/03 13:06:28;;;;;;;;;;;7.30;52.50;;;5.69;55.78;101910.06;12248181;19;19929;-86
2023/03/03 13:10:44;;;;;;;;;;;7.40;52.50;;;5.74;55.77;101898.72;12247227;19;19944;-85
2023/03/03 13:15:38;;;;;;;;;;;7.80;52.70;;;5.79;55.59;101900.41;12244681;19;19926;-86
2023/03/03 13:19:45;;;;;;;;;;;7.50;52.50;;;5.81;55.68;101899.50;12241569;19;19915;-87
2023/03/03 13:23:52;;;;;;;;;;;7.50;52.40;;;5.81;55.51;101896.91;12241575;19;19910;-86
2023/03/03 13:27:59;;;;;;;;;;;7.50;52.30;;;5.77;55.66;101874.50;12246569;19;19975;-86
2023/03/03 13:32:16;;;;;;;;;;;7.60;52.40;;;5.86;55.52;101886.44;12242225;19;19953;-86
2023/03/03 13:36:18;;;;;;;;;;;7.50;52.30;;;5.77;55.75;101870.16;12250415;19;19937;-87
2023/03/03 13:40:53;;;;;;;;;;;7.60;52.40;;;5.92;55.67;101886.38;12248083;19;19918;-86
2023/03/03 13:44:55;;;;;;;;;;;7.60;52.50;;;5.76;55.53;101865.03;12248486;19;19939;-86
2023/03/03 13:49:18;;;;;;;;;;;7.60;52.40;;;5.96;55.66;101882.84;12250432;19;19919;-86
2023/03/03 13:53:47;;;;;;;;;;;7.70;52.40;;;6.01;55.57;101878.44;12250043;19;20269;-86
2023/03/03 13:58:11;;;;;;;;;;;7.70;52.30;;;6.03;55.66;101879.28;12256975;19;19947;-86
2023/03/03 14:02:34;;;;;;;;;;;7.70;52.40;;;6.03;55.67;101874.09;12264418;19;19974;-87
2023/03/03 14:06:39;;;;;;;;;;;7.70;52.40;;;5.98;55.61;101861.22;12266700;19;19931;-85
2023/03/03 14:11:10;;;;;;;;;;;7.80;52.50;;;6.09;55.63;101873.13;12263853;19;19923;-86
2023/03/03 14:15:19;;;;;;;;;;;7.70;52.40;;;6.04;55.69;101855.06;12261263;19;19982;-86
2023/03/03 14:19:27;;;;;;;;;;;7.80;52.40;;;6.13;55.48;101864.41;12267266;19;19907;-86
2023/03/03 14:23:50;;;;;;;;;;;7.80;52.80;;;6.16;55.45;101859.19;12263337;19;19939;-86
2023/03/03 14:27:57;;;;;;;;;;;7.80;52.40;;;6.17;55.48;101845.31;12268517;19;19911;-86
2023/03/03 14:32:01;;;;;;;;;;;7.80;52.30;;;6.14;55.61;101843.63;12264787;19;19939;-86
2023/03/03 14:36:04;;;;;;;;;;;7.80;52.30;;;6.09;55.65;101832.50;12262702;19;20621;-86
2023/03/03 14:40:21;;;;;;;;;;;7.90;52.30;;;6.23;55.41;101836.56;12271298;19;19934;-86
2023/03/03 14:44:24;;;;;;;;;;;7.90;52.40;;;6.27;55.54;101833.03;12263232;19;19939;-85
2023/03/03 14:48:26;;;;;;;;;;;8.00;52.40;;;6.13;55.46;101808.22;12269274;19;19919;-86
2023/03/03 14:52:29;;;;;;;;;;;8.10;52.40;;;6.30;55.66;101832.97;12268657;19;19927;-86
2023/03/03 14:56:35;;;;;;;;;;;7.90;52.40;;;6.30;55.83;101818.25;12265347;19;19932;-86
2023/03/03 15:00:37;;;;;;;;;;;7.90;52.40;;;6.34;55.44;101813.84;12267528;19;19921;-85
2023/03/03 15:04:38;;;;;;;;;;;8.00;52.40;;;6.28;55.65;101793.25;12264083;19;19923;-85
2023/03/03 15:08:41;;;;;;;;;;;8.00;52.30;;;6.35;55.57;101800.88;12269297;19;19933;-86
2023/03/03 15:12:42;;;;;;;;;;;8.00;52.30;;;6.41;55.63;101807.69;12266740;19;19914;-86
2023/03/03 15:16:44;;;;;;;;;;;8.10;52.30;;;6.46;55.42;101805.84;12267165;19;19915;-86
2023/03/03 15:21:12;;;;;;;;;;;8.10;52.30;;;6.49;55.33;101805.78;12269855;19;20393;-86
2023/03/03 15:25:41;;;;;;;;;;;8.10;52.70;;;6.50;55.55;101791.91;12265138;19;19922;-86
2023/03/03 15:29:49;;;;;;;;;;;8.20;52.40;;;6.58;55.70;101799.53;12265085;19;20341;-86
2023/03/03 15:34:21;;;;;;;;;;;8.20;52.40;;;6.54;55.37;101795.31;12261632;19;19966;-86
2023/03/03 15:38:53;;;;;;;;;;;8.20;52.30;;;6.57;55.43;101796.09;12262901;19;19919;-89
2023/03/03 15:43:37;;;;;;;;;;;8.20;52.30;;;6.54;55.58;101778.00;12261596;19;19932;-86
2023/03/03 15:48:29;;;;;;;;;;;8.20;52.20;;;6.45;55.40;101772.97;12265481;19;19925;-86
2023/03/03 15:52:45;;;;;;;;;;;8.20;52.30;;;6.56;55.49;101790.91;12261097;19;19914;-87
2023/03/03 15:56:50;;;;;;;;;;;8.20;52.30;;;6.57;55.54;101783.09;12262716;19;19947;-87
2023/03/03 16:01:25;;;;;;;;;;;8.20;52.30;;;6.51;55.61;101762.50;12263308;19;19921;-86
2023/03/03 16:05:56;;;;;;;;;;;8.20;52.30;;;6.59;55.41;101778.75;12254977;19;19935;-86
2023/03/03 16:10:23;;;;;;;;;;;8.20;52.30;;;6.51;55.29;101761.63;12257077;19;19934;-87
2023/03/03 16:14:37;;;;;;;;;;;8.20;52.30;;;6.62;55.54;101773.50;12253173;19;19918;-86
2023/03/03 16:19:04;;;;;;;;;;;8.20;52.40;;;6.64;55.54;101769.13;12254914;19;19918;-86
2023/03/03 16:23:24;;;;;;;;;;;8.20;52.30;;;6.63;55.34;101770.00;12255793;19;19911;-86
2023/03/03 16:27:39;;;;;;;;;;;8.30;52.40;;;6.51;55.56;101762.50;12258273;19;19948;-86
2023/03/03 16:32:12;;;;;;;;;;;8.20;52.30;;;6.55;55.49;101766.72;12252690;19;20266;-86
2023/03/03 16:36:17;;;;;;;;;;;8.20;52.30;;;6.62;55.36;101777.84;12251379;19;20004;-86
2023/03/03 16:40:32;;;;;;;;;;;8.20;52.30;;;6.64;55.47;101784.69;12255133;19;19915;-86
2023/03/03 16:45:14;;;;;;;;;;;8.20;52.30;;;6.52;55.25;101760.75;12251808;19;20013;-86
2023/03/03 16:49:45;;;;;;;;;;;8.20;52.30;;;6.61;55.28;101778.69;12249492;19;19915;-86
2023/03/03 16:54:10;;;;;;;;;;;8.20;52.30;;;6.34;55.51;101720.47;12250681;19;20381;-86
2023/03/03 16:58:34;;;;;;;;;;;8.20;52.30;;;6.63;55.32;101767.41;12249791;19;20345;-86
2023/03/03 17:03:02;;;;;;;;;;;8.20;52.20;;;6.64;55.58;101766.53;12253464;19;19911;-85
2023/03/03 17:07:54;;;;;;;;;;;8.20;52.20;;;6.68;55.34;101766.47;12252189;19;19918;-86
2023/03/03 17:12:04;;;;;;;;;;;8.20;52.20;;;6.62;55.43;101763.09;12241767;19;19919;-86
2023/03/03 17:16:18;;;;;;;;;;;8.30;52.30;;;6.73;55.54;101772.41;12249437;19;19915;-86
2023/03/03 17:20:30;;;;;;;;;;;8.30;52.20;;;6.72;55.49;101761.16;12248451;19;19944;-86
2023/03/03 17:24:55;;;;;;;;;;;8.30;52.20;;;6.67;55.30;101749.16;12247183;19;19918;-86
2023/03/03 17:29:06;;;;;;;;;;;8.30;52.10;;;6.65;55.33;101747.47;12245255;19;20024;-86
2023/03/03 17:33:39;;;;;;;;;;;8.30;52.10;;;6.72;55.31;101760.28;12259324;19;19919;-86
2023/03/03 17:37:53;;;;;;;;;;;8.30;52.00;;;6.69;55.28;101760.38;12257979;19;19937;-86
2023/03/03 17:42:11;;;;;;;;;;;8.30;52.00;;;6.66;55.42;101756.09;12260794;19;19932;-86
2023/03/03 17:46:20;;;;;;;;;;;8.30;52.00;;;6.64;55.25;101750.97;12264440;19;19927;-86
2023/03/03 17:50:38;;;;;;;;;;;8.20;51.90;;;6.44;55.36;101724.59;12260692;19;19923;-86
2023/03/03 17:55:05;;;;;;;;;;;8.20;51.90;;;6.40;55.37;101725.56;12256932;19;19919;-86
2023/03/03 17:59:22;;;;;;;;;;;8.10;51.90;;;6.45;55.15;101741.84;12261542;19;19914;-86
2023/03/03 18:03:47;;;;;;;;;;;8.10;51.90;;;6.45;55.20;101748.78;12256671;19;20329;-86
2023/03/03 18:07:59;;;;;;;;;;;8.00;51.90;;;6.16;55.14;101698.41;12261280;19;19915;-86
2023/03/03 18:12:23;;;;;;;;;;;8.00;52.00;;;6.40;55.38;101743.72;12260728;19;19923;-87
2023/03/03 18:17:09;;;;;;;;;;;7.90;52.00;;;6.36;55.24;101742.06;12260560;19;20000;-86
2023/03/03 18:21:19;;;;;;;;;;;7.90;52.00;;;6.28;55.23;101728.41;12257021;19;20350;-85
2023/03/03 18:25:24;;;;;;;;;;;7.90;52.10;;;6.24;55.40;101713.78;12253828;19;19983;-86
2023/03/03 18:29:27;;;;;;;;;;;7.90;52.10;;;6.33;55.23;101718.78;12258431;19;19927;-86
2023/03/03 18:33:59;;;;;;;;;;;7.90;52.20;;;6.28;55.17;101715.44;12255750;19;20337;-86
2023/03/03 18:38:24;;;;;;;;;;;7.90;52.20;;;6.27;55.46;101716.31;12255520;19;19932;-86
2023/03/03 18:42:41;;;;;;;;;;;7.90;52.30;;;6.22;55.23;101702.59;12255781;19;19926;-86
2023/03/03 18:46:45;;;;;;;;;;;7.90;52.30;;;6.29;55.39;101717.13;12258634;19;19948;-86
2023/03/03 18:50:51;;;;;;;;;;;7.90;52.30;;;6.19;55.45;101706.97;12255993;19;19918;-85
2023/03/03 18:55:08;;;;;;;;;;;7.90;52.40;;;6.32;55.30;101717.94;12253991;19;19919;-86
2023/03/03 18:59:30;;;;;;;;;;;7.90;52.40;;;6.31;55.36;101716.19;12256310;19;19925;-85
2023/03/03 19:03:45;;;;;;;;;;;7.90;52.40;;;6.33;55.30;101721.38;12255061;19;19907;-86
2023/03/03 19:08:19;;;;;;;;;;;7.90;52.40;;;6.33;55.30;101719.63;12257567;19;19919;-86
2023/03/03 19:12:41;;;;;;;;;;;7.90;52.40;;;6.34;55.45;101712.69;12254716;19;19911;-86
2023/03/03 19:16:43;;;;;;;;;;;7.90;52.40;;;6.28;55.46;101703.31;12254981;19;19998;-85